Time;durP1;ratioP1;P1;durP2;ratioP2;P2;SDS_P1;SDS_P2;PMS_P1;PMS_P2;Temp;Humidity;BMP_temperature;BMP_pressure;BME280_temperature;BME280_humidity;BME280_pressure;Samples;Min_cycle;Max_cycle;Signal;HPM_P1;HPM_P2
2022/07/26 00:02:05;;;;;;;1999.90;999.90;;;21.60;64.80;;;;;;5024952;28;20041;-91
2022/07/26 00:04:31;;;;;;;1999.90;999.90;;;21.70;65.40;;;;;;5040734;28;20029;-91
2022/07/26 00:06:57;;;;;;;1999.90;999.90;;;21.60;64.50;;;;;;5040849;28;20068;-91
2022/07/26 00:09:22;;;;;;;1999.90;999.90;;;21.60;65.10;;;;;;5040280;28;20661;-91
2022/07/26 00:11:48;;;;;;;1999.90;999.90;;;21.50;64.60;;;;;;5037241;28;20025;-91
2022/07/26 00:14:14;;;;;;;1999.90;999.90;;;21.40;65.40;;;;;;5033630;28;20037;-91
2022/07/26 00:16:40;;;;;;;1999.90;999.90;;;21.40;64.90;;;;;;5037509;28;20091;-91
2022/07/26 00:19:08;;;;;;;1999.90;999.90;;;21.50;64.10;;;;;;5034268;28;20037;-91
2022/07/26 00:21:36;;;;;;;1999.90;999.90;;;21.50;66.80;;;;;;5033876;28;20061;-88
2022/07/26 00:24:03;;;;;;;1999.90;999.90;;;21.60;64.90;;;;;;5030718;28;20033;-89
2022/07/26 00:26:29;;;;;;;1999.90;999.90;;;21.70;67.00;;;;;;5021013;28;20224;-91
2022/07/26 00:28:54;;;;;;;1999.90;999.90;;;21.50;68.80;;;;;;5030536;28;20084;-91
2022/07/26 00:31:20;;;;;;;1999.90;999.90;;;21.50;65.60;;;;;;5025580;28;20492;-92
2022/07/26 00:33:46;;;;;;;1999.90;999.90;;;21.60;63.50;;;;;;5029295;28;20074;-91
2022/07/26 00:36:11;;;;;;;1999.90;999.90;;;21.50;63.30;;;;;;5035630;28;20116;-91
2022/07/26 00:38:37;;;;;;;1999.90;999.90;;;21.40;62.70;;;;;;5035175;28;20481;-92
2022/07/26 00:41:04;;;;;;;1999.90;999.90;;;21.40;63.90;;;;;;5036471;28;20447;-91
2022/07/26 00:43:30;;;;;;;1999.90;999.90;;;21.40;68.90;;;;;;5037823;28;20120;-91
2022/07/26 00:45:56;;;;;;;1999.90;999.90;;;21.30;68.70;;;;;;5030304;28;20112;-91
2022/07/26 00:48:22;;;;;;;1999.90;999.90;;;21.20;69.30;;;;;;5016934;28;20056;-92
2022/07/26 00:50:48;;;;;;;1999.90;999.90;;;21.20;68.30;;;;;;5011819;28;20064;-91
2022/07/26 00:53:14;;;;;;;1999.90;999.90;;;21.10;67.40;;;;;;5032776;28;20481;-91
2022/07/26 00:55:39;;;;;;;1999.90;999.90;;;21.10;64.70;;;;;;5037091;28;20021;-91
2022/07/26 00:58:05;;;;;;;1999.90;999.90;;;21.10;66.10;;;;;;5031922;28;20034;-91
2022/07/26 01:00:31;;;;;;;1999.90;999.90;;;21.10;64.20;;;;;;5018847;28;20469;-91
2022/07/26 01:02:59;;;;;;;1999.90;999.90;;;21.00;64.30;;;;;;5030220;28;20122;-91
2022/07/26 01:05:26;;;;;;;1999.90;999.90;;;21.00;63.50;;;;;;5046870;28;20025;-91
2022/07/26 01:07:52;;;;;;;1999.90;999.90;;;21.00;64.00;;;;;;5046207;28;20090;-90
2022/07/26 01:10:19;;;;;;;1999.90;999.90;;;21.00;63.70;;;;;;5043218;28;20029;-91
2022/07/26 01:12:45;;;;;;;1999.90;999.90;;;21.00;63.90;;;;;;5037074;28;20091;-91
2022/07/26 01:15:12;;;;;;;1999.90;999.90;;;20.90;64.20;;;;;;5037178;28;20087;-91
2022/07/26 01:17:39;;;;;;;1999.90;999.90;;;20.90;64.70;;;;;;5037728;28;20029;-91
2022/07/26 01:20:08;;;;;;;1999.90;999.90;;;20.90;64.60;;;;;;5032727;28;20125;-92
2022/07/26 01:22:34;;;;;;;1999.90;999.90;;;20.80;65.10;;;;;;5036073;28;20362;-91
2022/07/26 01:24:59;;;;;;;1999.90;999.90;;;20.80;66.10;;;;;;5026959;28;20481;-88
2022/07/26 01:27:26;;;;;;;1999.90;999.90;;;20.80;66.60;;;;;;5015170;28;20166;-90
2022/07/26 01:29:51;;;;;;;1999.90;999.90;;;20.80;66.70;;;;;;5027402;28;20033;-91
2022/07/26 01:32:18;;;;;;;1999.90;999.90;;;20.70;66.80;;;;;;5030871;28;20041;-91
2022/07/26 01:34:44;;;;;;;1999.90;999.90;;;20.70;66.60;;;;;;5043634;28;20404;-89
2022/07/26 01:37:10;;;;;;;1999.90;999.90;;;20.70;66.50;;;;;;5039772;28;20223;-89
2022/07/26 01:39:36;;;;;;;1999.90;999.90;;;20.70;66.50;;;;;;5038183;28;20032;-89
2022/07/26 01:42:02;;;;;;;1999.90;999.90;;;20.70;66.50;;;;;;5056022;28;20041;-89
2022/07/26 01:44:28;;;;;;;1999.90;999.90;;;20.70;66.80;;;;;;5037075;28;20159;-89
2022/07/26 01:46:53;;;;;;;1999.90;999.90;;;20.70;66.40;;;;;;5031962;28;20124;-89
2022/07/26 01:49:19;;;;;;;1999.90;999.90;;;20.70;66.10;;;;;;5031061;28;20484;-89
2022/07/26 01:51:45;;;;;;;1999.90;999.90;;;20.70;66.50;;;;;;5036244;28;20519;-89
2022/07/26 01:54:10;;;;;;;1999.90;999.90;;;20.70;66.90;;;;;;5014579;28;20440;-91
2022/07/26 01:56:36;;;;;;;1999.90;999.90;;;20.70;65.80;;;;;;5031897;28;20036;-91
2022/07/26 01:59:02;;;;;;;1999.90;999.90;;;20.70;65.90;;;;;;5026052;28;20460;-91
2022/07/26 02:01:28;;;;;;;1999.90;999.90;;;20.70;65.80;;;;;;5025094;28;20749;-92
2022/07/26 02:03:55;;;;;;;1999.90;999.90;;;20.70;65.50;;;;;;5035535;28;20045;-91
2022/07/26 02:06:20;;;;;;;1999.90;999.90;;;20.70;65.30;;;;;;5045585;28;20073;-91
2022/07/26 02:08:46;;;;;;;1999.90;999.90;;;20.70;64.60;;;;;;5023455;28;20026;-92
2022/07/26 02:11:12;;;;;;;1999.90;999.90;;;20.70;66.50;;;;;;5021135;28;20049;-91
2022/07/26 02:13:40;;;;;;;1999.90;999.90;;;20.80;64.90;;;;;;5038822;28;20431;-91
2022/07/26 02:16:09;;;;;;;1999.90;999.90;;;20.80;65.30;;;;;;5051949;28;20096;-91
2022/07/26 02:18:36;;;;;;;1999.90;999.90;;;20.70;66.70;;;;;;5038726;28;20491;-92
2022/07/26 02:21:03;;;;;;;1999.90;999.90;;;20.60;68.00;;;;;;5029762;28;20033;-92
2022/07/26 02:23:29;;;;;;;1999.90;999.90;;;20.60;69.80;;;;;;5032488;28;20060;-91
2022/07/26 02:25:55;;;;;;;1999.90;999.90;;;20.60;70.00;;;;;;5032095;28;20492;-91
2022/07/26 02:28:21;;;;;;;1999.90;999.90;;;20.40;71.10;;;;;;5030696;28;20041;-89
2022/07/26 02:30:48;;;;;;;1999.90;999.90;;;20.30;73.50;;;;;;5031883;28;20033;-89
2022/07/26 02:33:15;;;;;;;1999.90;999.90;;;20.20;72.80;;;;;;5033113;28;20033;-88
2022/07/26 02:35:41;;;;;;;1999.90;999.90;;;20.20;71.90;;;;;;5041742;28;20029;-89
2022/07/26 02:38:10;;;;;;;1999.90;999.90;;;20.20;71.60;;;;;;5040079;28;20520;-89
2022/07/26 02:40:37;;;;;;;1999.90;999.90;;;20.20;71.30;;;;;;5038631;28;20087;-88
2022/07/26 02:43:03;;;;;;;1999.90;999.90;;;20.20;70.90;;;;;;5037352;28;20039;-89
2022/07/26 02:45:29;;;;;;;1999.90;999.90;;;20.20;71.40;;;;;;5027064;28;20032;-88
2022/07/26 02:47:55;;;;;;;1999.90;999.90;;;20.20;71.30;;;;;;5036570;28;20025;-88
2022/07/26 02:50:23;;;;;;;1999.90;999.90;;;20.20;71.50;;;;;;5015750;28;20553;-89
2022/07/26 02:52:51;;;;;;;1999.90;999.90;;;20.20;71.60;;;;;;5032695;28;20033;-89
2022/07/26 02:55:18;;;;;;;1999.90;999.90;;;20.20;71.70;;;;;;5033102;28;20033;-89
2022/07/26 02:57:44;;;;;;;1999.90;999.90;;;20.20;70.80;;;;;;5030980;28;20212;-89
2022/07/26 03:00:12;;;;;;;1999.90;999.90;;;20.20;70.50;;;;;;5029032;28;20472;-90
2022/07/26 03:02:38;;;;;;;1999.90;999.90;;;20.20;70.50;;;;;;5039098;28;20057;-90
2022/07/26 03:05:05;;;;;;;1999.90;999.90;;;20.20;71.00;;;;;;5041804;28;20075;-90
2022/07/26 03:07:31;;;;;;;1999.90;999.90;;;20.20;71.10;;;;;;5039202;28;20028;-89
2022/07/26 03:09:57;;;;;;;1999.90;999.90;;;20.20;70.60;;;;;;5039500;28;20524;-90
2022/07/26 03:12:23;;;;;;;1999.90;999.90;;;20.10;69.90;;;;;;5039561;28;20116;-88
2022/07/26 03:14:49;;;;;;;1999.90;999.90;;;20.20;69.70;;;;;;5036434;28;20025;-90
2022/07/26 03:17:16;;;;;;;1999.90;999.90;;;20.20;70.00;;;;;;5035547;28;20052;-90
2022/07/26 03:19:42;;;;;;;1999.90;999.90;;;20.20;69.30;;;;;;5031353;28;20030;-89
2022/07/26 03:22:07;;;;;;;1999.90;999.90;;;20.20;69.80;;;;;;5033762;28;20041;-89
2022/07/26 03:24:33;;;;;;;1999.90;999.90;;;20.20;70.10;;;;;;5030617;28;20040;-89
2022/07/26 03:26:59;;;;;;;1999.90;999.90;;;20.20;70.10;;;;;;5026467;28;20037;-89
2022/07/26 03:29:25;;;;;;;1999.90;999.90;;;20.20;72.70;;;;;;5033632;28;20036;-91
2022/07/26 03:31:51;;;;;;;1999.90;999.90;;;20.00;75.40;;;;;;5011814;28;20244;-90
2022/07/26 03:34:17;;;;;;;1999.90;999.90;;;19.80;77.50;;;;;;5043566;28;20037;-89
2022/07/26 03:36:43;;;;;;;1999.90;999.90;;;19.60;80.70;;;;;;5039669;28;20044;-90
2022/07/26 03:39:09;;;;;;;1999.90;999.90;;;19.30;84.10;;;;;;5040487;28;20041;-89
2022/07/26 03:41:35;;;;;;;1999.90;999.90;;;19.00;91.30;;;;;;5036949;28;20025;-88
2022/07/26 03:44:00;;;;;;;1999.90;999.90;;;17.90;99.90;;;;;;5035962;28;20120;-89
2022/07/26 03:46:26;;;;;;;1999.90;999.90;;;17.20;99.90;;;;;;5033330;28;20057;-90
2022/07/26 03:48:52;;;;;;;1999.90;999.90;;;16.90;99.90;;;;;;5034442;28;20104;-89
2022/07/26 03:51:18;;;;;;;1999.90;999.90;;;16.90;99.90;;;;;;5014503;28;20432;-89
2022/07/26 03:53:43;;;;;;;1999.90;999.90;;;16.80;99.90;;;;;;5029775;28;20037;-89
2022/07/26 03:56:27;;;;;;;1999.90;999.90;;;16.80;99.90;;;;;;5021193;28;20038;-89
2022/07/26 03:59:00;;;;;;;1999.90;999.90;;;16.70;99.90;;;;;;5027086;28;20116;-88
2022/07/26 04:01:26;;;;;;;1999.90;999.90;;;16.70;99.90;;;;;;5031310;28;20080;-89
2022/07/26 04:03:52;;;;;;;1999.90;999.90;;;16.70;99.90;;;;;;5041334;28;20207;-90
2022/07/26 04:06:18;;;;;;;1999.90;999.90;;;16.60;99.90;;;;;;5042563;28;20567;-90
2022/07/26 04:08:43;;;;;;;1999.90;999.90;;;16.60;99.90;;;;;;5036489;28;20033;-88
2022/07/26 04:11:09;;;;;;;1999.90;999.90;;;16.40;99.90;;;;;;5038580;28;20444;-90
2022/07/26 04:13:35;;;;;;;1999.90;999.90;;;16.40;99.90;;;;;;5034528;28;20043;-90
2022/07/26 04:16:02;;;;;;;1999.90;999.90;;;16.50;99.90;;;;;;5036890;28;20057;-90
2022/07/26 04:18:27;;;;;;;1999.90;999.90;;;16.40;99.90;;;;;;5030474;28;20033;-90
2022/07/26 04:20:53;;;;;;;1999.90;999.90;;;16.40;99.90;;;;;;5032642;28;20095;-90
2022/07/26 04:23:19;;;;;;;1999.90;999.90;;;16.50;99.90;;;;;;5032465;28;20484;-89
2022/07/26 04:25:44;;;;;;;1999.90;999.90;;;16.40;99.90;;;;;;5030608;28;20096;-90
2022/07/26 04:28:11;;;;;;;1999.90;999.90;;;16.30;99.90;;;;;;5027769;28;20195;-90
2022/07/26 04:30:37;;;;;;;1999.90;999.90;;;16.30;99.90;;;;;;5024532;28;20054;-90
2022/07/26 04:33:04;;;;;;;1999.90;999.90;;;16.30;99.90;;;;;;5032881;28;20017;-90
2022/07/26 04:35:30;;;;;;;1999.90;999.90;;;16.30;99.90;;;;;;5034354;28;20025;-90
2022/07/26 04:37:56;;;;;;;1999.90;999.90;;;16.20;99.90;;;;;;5035919;28;20038;-89
2022/07/26 04:40:22;;;;;;;1999.90;999.90;;;16.30;99.90;;;;;;5032401;28;20033;-90
2022/07/26 04:42:49;;;;;;;1999.90;999.90;;;16.50;99.90;;;;;;5016561;28;20029;-90
2022/07/26 04:45:15;;;;;;;1999.90;999.90;;;16.60;99.90;;;;;;5029952;28;20129;-91
2022/07/26 04:47:48;;;;;;;1999.90;999.90;;;16.40;99.90;;;;;;5027847;28;20540;-90
2022/07/26 04:50:14;;;;;;;1999.90;999.90;;;16.50;99.90;;;;;;5030663;28;20053;-91
2022/07/26 04:52:40;;;;;;;1999.90;999.90;;;16.50;99.90;;;;;;5019258;28;20549;-90
2022/07/26 04:55:07;;;;;;;1999.90;999.90;;;16.50;99.90;;;;;;5019710;28;20105;-90
2022/07/26 04:57:34;;;;;;;1999.90;999.90;;;16.40;99.90;;;;;;5016950;28;20041;-93
2022/07/26 04:59:59;;;;;;;1999.90;999.90;;;16.40;99.90;;;;;;5004114;28;20041;-91
2022/07/26 05:02:25;;;;;;;1999.90;999.90;;;16.50;99.90;;;;;;5034570;28;20110;-91
2022/07/26 05:04:51;;;;;;;1999.90;999.90;;;16.40;99.90;;;;;;5025223;28;20037;-90
2022/07/26 05:07:16;;;;;;;1999.90;999.90;;;16.50;99.90;;;;;;5022274;28;20124;-90
2022/07/26 05:09:42;;;;;;;1999.90;999.90;;;16.60;99.90;;;;;;5016921;28;20463;-91
2022/07/26 05:12:08;;;;;;;1999.90;999.90;;;16.60;99.90;;;;;;5038454;28;20055;-91
2022/07/26 05:14:36;;;;;;;1999.90;999.90;;;16.50;99.90;;;;;;5031133;28;20488;-92
2022/07/26 05:17:02;;;;;;;1999.90;999.90;;;16.50;99.90;;;;;;5016192;28;20114;-91
2022/07/26 05:19:28;;;;;;;1999.90;999.90;;;16.40;99.90;;;;;;5035529;28;20025;-92
2022/07/26 05:21:53;;;;;;;1999.90;999.90;;;16.50;99.90;;;;;;5012797;28;20044;-91
2022/07/26 05:24:19;;;;;;;1999.90;999.90;;;16.50;99.90;;;;;;5031715;28;20425;-91
2022/07/26 05:26:44;;;;;;;1999.90;999.90;;;16.50;99.90;;;;;;5028750;28;20034;-88
2022/07/26 05:29:10;;;;;;;1999.90;999.90;;;16.50;99.90;;;;;;5024616;28;20022;-92
2022/07/26 05:31:36;;;;;;;1999.90;999.90;;;16.60;99.90;;;;;;5024585;28;20037;-92
2022/07/26 05:34:05;;;;;;;1999.90;999.90;;;16.50;99.90;;;;;;5024931;28;20451;-92
2022/07/26 05:36:30;;;;;;;1999.90;999.90;;;16.50;99.90;;;;;;5030130;28;20087;-89
2022/07/26 05:38:56;;;;;;;1999.90;999.90;;;16.40;99.90;;;;;;5031186;28;20036;-89
2022/07/26 05:41:22;;;;;;;1999.90;999.90;;;16.50;99.90;;;;;;5033889;28;20029;-83
2022/07/26 05:43:47;;;;;;;1999.90;999.90;;;16.50;99.90;;;;;;5013575;28;20154;-86
2022/07/26 05:46:14;;;;;;;1999.90;999.90;;;16.50;99.90;;;;;;5020890;28;20032;-82
2022/07/26 05:48:41;;;;;;;1999.90;999.90;;;16.60;99.90;;;;;;5028288;28;20029;-83
2022/07/26 05:51:10;;;;;;;1999.90;999.90;;;16.80;99.90;;;;;;5027610;28;20034;-82
2022/07/26 05:53:36;;;;;;;1999.90;999.90;;;16.90;99.90;;;;;;5019459;28;20045;-82
2022/07/26 05:56:03;;;;;;;1999.90;999.90;;;16.90;99.90;;;;;;5034140;28;20064;-83
2022/07/26 05:58:28;;;;;;;1999.90;999.90;;;16.90;99.90;;;;;;5016045;28;20026;-84
2022/07/26 06:00:54;;;;;;;1999.90;999.90;;;16.90;99.90;;;;;;5056522;28;20046;-82
2022/07/26 06:03:22;;;;;;;1999.90;999.90;;;16.90;99.90;;;;;;5033770;28;20471;-82
2022/07/26 06:05:55;;;;;;;1999.90;999.90;;;16.90;99.90;;;;;;5037893;28;20099;-84
2022/07/26 06:08:21;;;;;;;1999.90;999.90;;;16.90;99.90;;;;;;5027165;28;20802;-83
2022/07/26 06:10:48;;;;;;;1999.90;999.90;;;17.00;99.90;;;;;;5033627;28;20060;-84
2022/07/26 06:13:14;;;;;;;1999.90;999.90;;;16.90;99.90;;;;;;5025067;28;20130;-82
2022/07/26 06:15:41;;;;;;;1999.90;999.90;;;17.00;99.90;;;;;;5033532;28;20040;-88
2022/07/26 06:18:06;;;;;;;1999.90;999.90;;;17.20;99.90;;;;;;5032122;28;20036;-82
2022/07/26 06:20:32;;;;;;;1999.90;999.90;;;17.30;99.90;;;;;;5039033;28;20033;-82
2022/07/26 06:22:59;;;;;;;1999.90;999.90;;;17.40;99.90;;;;;;5033616;28;20037;-82
2022/07/26 06:25:26;;;;;;;1999.90;999.90;;;17.40;99.90;;;;;;5027519;28;20461;-82
2022/07/26 06:27:52;;;;;;;1999.90;999.90;;;17.50;99.90;;;;;;5031580;28;20041;-86
2022/07/26 06:30:17;;;;;;;1999.90;999.90;;;17.30;99.90;;;;;;5027229;28;20500;-82
2022/07/26 06:32:43;;;;;;;1999.90;999.90;;;17.30;99.90;;;;;;5033530;28;20025;-82
2022/07/26 06:35:13;;;;;;;1999.90;999.90;;;17.50;99.90;;;;;;5031514;28;20083;-82
2022/07/26 06:37:40;;;;;;;1999.90;999.90;;;17.40;99.90;;;;;;5043736;28;20433;-82
2022/07/26 06:40:07;;;;;;;1999.90;999.90;;;17.10;99.90;;;;;;5036412;28;20123;-84
2022/07/26 06:42:32;;;;;;;1999.90;999.90;;;17.20;99.90;;;;;;5031852;28;20500;-83
2022/07/26 06:44:59;;;;;;;1999.90;999.90;;;17.30;99.90;;;;;;5017912;28;20037;-82
2022/07/26 06:47:25;;;;;;;1999.90;999.90;;;17.30;99.90;;;;;;5027412;28;20022;-82
2022/07/26 06:49:51;;;;;;;1999.90;999.90;;;17.20;99.90;;;;;;5030771;28;20128;-83
2022/07/26 06:52:17;;;;;;;1999.90;999.90;;;17.50;99.90;;;;;;5023957;28;20025;-84
2022/07/26 06:54:42;;;;;;;1999.90;999.90;;;17.60;99.90;;;;;;5025700;28;20422;-82
2022/07/26 06:57:08;;;;;;;1999.90;999.90;;;17.60;99.90;;;;;;5022531;28;20044;-83
2022/07/26 06:59:34;;;;;;;1999.90;999.90;;;17.70;99.90;;;;;;5027811;28;20484;-88
2022/07/26 07:02:00;;;;;;;1999.90;999.90;;;18.00;99.90;;;;;;5036107;28;20045;-93
2022/07/26 07:04:30;;;;;;;1999.90;999.90;;;18.00;99.90;;;;;;5025189;28;20264;-91
2022/07/26 07:07:01;;;;;;;1999.90;999.90;;;18.10;99.90;;;;;;5042051;28;20029;-92
2022/07/26 07:09:33;;;;;;;;;;;18.50;99.90;;;;;;5021629;28;20107;-91
2022/07/26 07:12:01;;;;;;;1999.90;999.90;;;18.70;99.90;;;;;;5035072;28;19994;-91
2022/07/26 07:14:27;;;;;;;1999.90;999.90;;;18.40;99.90;;;;;;5033793;28;20124;-92
2022/07/26 07:16:53;;;;;;;1999.90;999.90;;;18.80;99.90;;;;;;5038938;28;20463;-92
2022/07/26 07:19:18;;;;;;;1999.90;999.90;;;18.70;99.90;;;;;;5032597;28;20497;-92
2022/07/26 07:21:44;;;;;;;1999.90;999.90;;;19.20;99.90;;;;;;5027949;28;20030;-92
2022/07/26 07:24:09;;;;;;;1999.90;999.90;;;19.00;99.90;;;;;;5031818;28;20103;-92
2022/07/26 07:26:35;;;;;;;1999.90;999.90;;;19.00;99.90;;;;;;5028480;28;20053;-92
2022/07/26 07:29:01;;;;;;;1999.90;999.90;;;19.20;99.90;;;;;;5030215;28;20515;-91
2022/07/26 07:31:26;;;;;;;1999.90;999.90;;;19.20;99.90;;;;;;5040680;28;20412;-92
2022/07/26 07:33:52;;;;;;;1999.90;999.90;;;19.50;99.90;;;;;;5039396;28;20033;-93
2022/07/26 07:36:18;;;;;;;1999.90;999.90;;;19.40;99.90;;;;;;5045353;28;20562;-92
2022/07/26 07:38:44;;;;;;;1999.90;999.90;;;19.70;99.90;;;;;;5022304;28;20036;-92
2022/07/26 07:41:10;;;;;;;1999.90;999.90;;;19.50;99.90;;;;;;5036509;28;20029;-91
2022/07/26 07:43:35;;;;;;;1999.90;999.90;;;19.60;99.90;;;;;;5037299;28;20033;-91
2022/07/26 07:46:01;;;;;;;1999.90;999.90;;;19.50;99.90;;;;;;5035919;28;20030;-92
2022/07/26 07:48:27;;;;;;;1999.90;999.90;;;19.90;99.90;;;;;;5032968;28;20523;-92
2022/07/26 07:50:52;;;;;;;1999.90;999.90;;;19.70;99.90;;;;;;5017542;28;20033;-92
2022/07/26 07:53:18;;;;;;;1999.90;999.90;;;19.50;99.90;;;;;;5014232;28;20056;-91
2022/07/26 07:55:43;;;;;;;1999.90;999.90;;;19.30;99.90;;;;;;5018078;28;20030;-91
2022/07/26 07:58:09;;;;;;;1999.90;999.90;;;19.20;99.90;;;;;;5027380;28;20030;-90
2022/07/26 08:00:35;;;;;;;1999.90;999.90;;;19.40;99.90;;;;;;5027515;28;20037;-92
2022/07/26 08:03:00;;;;;;;1999.90;999.90;;;19.40;99.90;;;;;;5040134;28;20053;-92
2022/07/26 08:05:26;;;;;;;1999.90;999.90;;;19.20;99.90;;;;;;5044215;28;20029;-92
2022/07/26 08:07:52;;;;;;;1999.90;999.90;;;19.40;99.90;;;;;;5025159;28;20063;-92
2022/07/26 08:10:17;;;;;;;1999.90;999.90;;;19.40;99.90;;;;;;5034231;28;20455;-92
2022/07/26 08:12:43;;;;;;;1999.90;999.90;;;19.70;99.90;;;;;;5037444;28;20031;-92
2022/07/26 08:15:09;;;;;;;1999.90;999.90;;;19.80;99.90;;;;;;5018348;28;20504;-92
2022/07/26 08:17:35;;;;;;;1999.90;999.90;;;20.00;99.90;;;;;;5019154;28;20029;-92
2022/07/26 08:20:01;;;;;;;1999.90;999.90;;;20.10;99.90;;;;;;5033459;28;20254;-92
2022/07/26 08:22:27;;;;;;;1999.90;999.90;;;20.00;99.90;;;;;;5014287;28;20060;-92
2022/07/26 08:24:53;;;;;;;1999.90;999.90;;;20.10;99.90;;;;;;5027494;28;20455;-92
2022/07/26 08:27:18;;;;;;;1999.90;999.90;;;20.10;99.90;;;;;;5023965;28;20025;-91
2022/07/26 08:29:44;;;;;;;1999.90;999.90;;;20.40;99.90;;;;;;5023857;28;20025;-92
2022/07/26 08:32:10;;;;;;;1999.90;999.90;;;20.40;99.90;;;;;;5017337;28;20132;-92
2022/07/26 08:34:35;;;;;;;1999.90;999.90;;;20.60;99.90;;;;;;5037633;28;20491;-92
2022/07/26 08:37:01;;;;;;;1999.90;999.90;;;20.80;99.90;;;;;;5036406;28;20041;-91
2022/07/26 08:39:27;;;;;;;1999.90;999.90;;;21.10;99.90;;;;;;5041426;28;20509;-92
2022/07/26 08:41:52;;;;;;;1999.90;999.90;;;20.50;99.90;;;;;;5039613;28;20035;-92
2022/07/26 08:44:18;;;;;;;1999.90;999.90;;;20.50;99.90;;;;;;5020397;28;20374;-90
2022/07/26 08:46:44;;;;;;;1999.90;999.90;;;20.50;99.90;;;;;;5036510;28;20489;-92
2022/07/26 08:49:11;;;;;;;1999.90;999.90;;;21.00;99.90;;;;;;5036202;28;20560;-92
2022/07/26 08:51:39;;;;;;;1999.90;999.90;;;20.40;99.90;;;;;;5015412;28;20499;-92
2022/07/26 08:54:05;;;;;;;1999.90;999.90;;;20.20;99.90;;;;;;5007974;28;20038;-92
2022/07/26 08:56:33;;;;;;;1999.90;999.90;;;20.10;99.90;;;;;;5037792;28;20029;-92
2022/07/26 08:59:01;;;;;;;1999.90;999.90;;;20.00;99.90;;;;;;5021886;28;20033;-91
2022/07/26 09:01:26;;;;;;;1999.90;999.90;;;19.90;99.90;;;;;;5039961;28;20049;-91
2022/07/26 09:03:52;;;;;;;1999.90;999.90;;;20.00;99.90;;;;;;5044228;28;20223;-92
2022/07/26 09:06:22;;;;;;;1999.90;999.90;;;20.20;99.90;;;;;;5019712;28;20049;-91
2022/07/26 09:08:51;;;;;;;1999.90;999.90;;;19.60;99.90;;;;;;5040244;28;20029;-92
2022/07/26 09:11:28;;;;;;;1999.90;999.90;;;19.60;99.90;;;;;;5034200;28;20558;-90
2022/07/26 09:14:04;;;;;;;1999.90;999.90;;;20.70;99.90;;;;;;5030828;28;20022;-90
2022/07/26 09:16:31;;;;;;;1999.90;999.90;;;21.90;91.90;;;;;;5038765;28;20028;-90
2022/07/26 09:19:20;;;;;;;1945.82;944.28;;;21.60;94.50;;;;;;5035532;28;20029;-90
2022/07/26 09:21:46;;;;;;;1999.90;980.88;;;21.50;94.10;;;;;;5030482;28;20029;-91
2022/07/26 09:24:12;;;;;;;1999.90;999.90;;;21.20;87.70;;;;;;5034159;28;20134;-91
2022/07/26 09:26:38;;;;;;;1723.13;801.85;;;21.10;92.20;;;;;;5040533;28;20052;-91
2022/07/26 09:29:05;;;;;;;1999.90;999.90;;;20.80;90.50;;;;;;5029934;28;20072;-94
2022/07/26 09:31:31;;;;;;;1999.90;999.90;;;21.00;99.90;;;;;;5033631;28;20053;-90
2022/07/26 09:33:58;;;;;;;1999.90;999.90;;;21.20;94.90;;;;;;5049409;28;20514;-90
2022/07/26 09:36:24;;;;;;;1999.90;999.90;;;21.00;95.00;;;;;;5043756;28;20036;-90
2022/07/26 09:38:57;;;;;;;1999.90;999.90;;;21.70;91.50;;;;;;5044905;28;20551;-94
2022/07/26 09:41:34;;;;;;;1999.90;999.90;;;22.80;77.20;;;;;;5026153;28;20029;-90
2022/07/26 09:44:05;;;;;;;1999.90;999.90;;;23.40;74.70;;;;;;5039195;28;20049;-90
2022/07/26 09:46:34;;;;;;;1704.15;982.05;;;24.00;73.00;;;;;;5041075;28;20480;-90
2022/07/26 09:49:20;;;;;;;1999.90;878.25;;;24.40;60.80;;;;;;5038111;28;20057;-93
2022/07/26 09:51:48;;;;;;;1714.18;860.33;;;24.60;58.00;;;;;;5033051;28;20128;-93
2022/07/26 09:54:34;;;;;;;1292.60;794.33;;;25.30;54.30;;;;;;5031575;28;20036;-96
2022/07/26 09:57:00;;;;;;;1492.47;810.88;;;25.50;47.80;;;;;;5029858;28;20060;-92
2022/07/26 09:59:27;;;;;;;1778.13;917.97;;;24.60;49.20;;;;;;5023276;28;20559;-92
2022/07/26 10:01:55;;;;;;;1631.63;810.30;;;25.20;48.70;;;;;;5022766;28;20057;-77
2022/07/26 10:04:21;;;;;;;1958.82;999.90;;;25.10;50.10;;;;;;5034366;28;20064;-77
2022/07/26 10:06:47;;;;;;;1989.80;946.25;;;24.80;51.00;;;;;;5037819;28;20036;-77
2022/07/26 10:09:14;;;;;;;1948.35;920.53;;;24.70;53.90;;;;;;5019814;28;20038;-77
2022/07/26 10:11:59;;;;;;;1968.32;870.83;;;24.50;49.20;;;;;;5032873;28;20789;-77
2022/07/26 10:14:44;;;;;;;1754.55;694.38;;;24.40;50.60;;;;;;5030564;28;20070;-78
2022/07/26 10:17:28;;;;;;;1246.53;527.67;;;23.90;50.50;;;;;;5036783;28;20027;-77
2022/07/26 10:20:02;;;;;;;1076.90;546.92;;;24.30;49.40;;;;;;5034106;28;20053;-78
2022/07/26 10:22:47;;;;;;;1222.63;529.63;;;24.60;48.60;;;;;;5033811;28;20061;-78
2022/07/26 10:25:16;;;;;;;741.88;389.20;;;25.20;47.00;;;;;;5031148;28;20200;-80
2022/07/26 10:27:48;;;;;;;1999.90;999.90;;;25.50;44.40;;;;;;5029907;28;20108;-77
2022/07/26 10:30:17;;;;;;;729.25;266.50;;;25.80;44.20;;;;;;5029939;28;20026;-77
2022/07/26 10:33:14;;;;;;;1572.72;797.10;;;25.50;44.10;;;;;;5020533;28;20045;-78
2022/07/26 10:35:42;;;;;;;1783.55;887.42;;;25.40;42.30;;;;;;5015330;28;20051;-78
2022/07/26 10:38:25;;;;;;;1335.32;619.42;;;25.20;41.80;;;;;;5022612;28;20547;-79
2022/07/26 10:41:10;;;;;;;1550.57;774.95;;;25.50;44.10;;;;;;5019274;28;20167;-79
2022/07/26 10:43:36;;;;;;;1999.90;999.90;;;26.60;40.60;;;;;;5018026;28;20459;-77
2022/07/26 10:46:17;;;;;;;1645.97;807.25;;;26.80;39.60;;;;;;5011791;28;20038;-78
2022/07/26 10:49:02;;;;;;;1611.15;797.65;;;26.30;42.20;;;;;;5006330;28;20108;-78
2022/07/26 10:51:37;;;;;;;1143.05;489.92;;;26.00;40.00;;;;;;5014890;28;20024;-78
2022/07/26 10:54:09;;;;;;;1999.90;999.90;;;26.20;41.40;;;;;;5011197;28;20669;-79
2022/07/26 10:56:37;;;;;;;1611.30;795.42;;;25.50;40.80;;;;;;5011769;28;20034;-79
2022/07/26 10:59:04;;;;;;;1647.95;831.55;;;25.80;40.00;;;;;;5013676;28;20427;-77
2022/07/26 11:01:35;;;;;;;1999.90;999.90;;;27.10;38.20;;;;;;5015635;28;20061;-80
2022/07/26 11:04:00;;;;;;;1999.90;999.90;;;27.90;37.90;;;;;;5019799;28;20103;-78
2022/07/26 11:06:29;;;;;;;1999.90;999.90;;;28.20;35.90;;;;;;5017943;28;20494;-77
2022/07/26 11:08:55;;;;;;;1789.00;883.72;;;28.90;32.80;;;;;;5020210;28;20030;-78
2022/07/26 11:11:32;;;;;;;1999.90;999.90;;;29.00;39.60;;;;;;5020297;28;20030;-84
2022/07/26 11:14:12;;;;;;;1999.90;999.90;;;28.90;32.30;;;;;;5013960;28;20030;-79
2022/07/26 11:16:37;;;;;;;;;;;28.00;33.80;;;;;;5010426;28;20033;-78
2022/07/26 11:19:28;;;;;;;1999.90;999.90;;;27.70;33.00;;;;;;5017311;28;20395;-80
2022/07/26 11:21:58;;;;;;;1999.90;999.90;;;27.30;35.00;;;;;;5013715;28;20026;-79
2022/07/26 11:24:25;;;;;;;1631.15;782.47;;;26.70;36.20;;;;;;5013690;28;20117;-79
2022/07/26 11:26:51;;;;;;;1999.90;999.90;;;25.50;37.30;;;;;;5012601;28;20026;-79
2022/07/26 11:29:33;;;;;;;973.70;272.20;;;25.20;39.50;;;;;;5010070;28;20037;-83
2022/07/26 11:31:59;;;;;;;829.45;323.20;;;24.70;39.60;;;;;;5002750;28;20038;-79
2022/07/26 11:34:26;;;;;;;1199.28;562.08;;;24.90;40.90;;;;;;4992038;28;20465;-81
2022/07/26 11:36:55;;;;;;;1210.13;439.75;;;25.10;39.00;;;;;;4989185;28;20030;-80
2022/07/26 11:39:22;;;;;;;1869.45;965.72;;;25.40;40.20;;;;;;5015249;28;20025;-80
2022/07/26 11:41:49;;;;;;;1223.65;610.35;;;26.50;40.60;;;;;;5008731;28;20539;-80
2022/07/26 11:44:22;;;;;;;1567.82;767.20;;;27.10;37.70;;;;;;5008273;28;20038;-80
2022/07/26 11:46:49;;;;;;;1999.90;999.90;;;28.40;34.30;;;;;;5004276;28;20035;-80
2022/07/26 11:49:14;;;;;;;1999.90;999.90;;;28.90;31.90;;;;;;5011401;28;20050;-79
2022/07/26 11:51:57;;;;;;;1999.90;999.90;;;28.50;31.90;;;;;;5005800;28;20049;-80
2022/07/26 11:54:26;;;;;;;1999.90;999.90;;;29.40;29.70;;;;;;5007877;28;20026;-83
2022/07/26 11:56:57;;;;;;;1999.90;999.90;;;30.70;28.40;;;;;;5006647;28;20042;-80
2022/07/26 11:59:35;;;;;;;1999.90;999.90;;;31.20;26.40;;;;;;5008236;28;20120;-80
2022/07/26 12:02:03;;;;;;;1999.90;999.90;;;31.90;25.30;;;;;;4983132;28;20057;-78
2022/07/26 12:04:31;;;;;;;1999.90;999.90;;;30.80;27.50;;;;;;5013755;28;20072;-81